Alice, Texas
Current Conditions -  °F | °C
As of 8:53 PM on Wednesday 22 Oct 2014 (Local Time) from KALI Reporting Station
Clear Clear  
Wind Chill: 73°   Ceiling: Unl
Heat Index: 73°   Visibility: 10mi
Dew Point: 65°   Wind: 8mph
Humidity: 76%   Direction: 90°E
Pressure: 30.03"   Gusts: NA
Location:  27.75°N, 98.06°W
Report Text: KALI 230153Z AUTO 09007KT 10SM CLR 23/18 A3003 RMK AO2 SLP168 T02280183
Loading
Personal Weather Stations






























Interactive Weather Map
Tropical Storm Tracking
New forecast layout! Learn more

10-Day Weather Forecast

Advertisements
Track Severe Weather on mobile